Time;durP1;ratioP1;P1;durP2;ratioP2;P2;SDS_P1;SDS_P2;PMS_P1;PMS_P2;Temp;Humidity;BMP_temperature;BMP_pressure;BME280_temperature;BME280_humidity;BME280_pressure;Samples;Min_cycle;Max_cycle;Signal;HPM_P1;HPM_P2
2022/02/22 00:00:17;;;;;;;32.92;8.18;;;;;;;5.70;100.00;101810.88;10374346;28;20037;-71
2022/02/22 00:05:17;;;;;;;27.08;7.57;;;;;;;5.63;100.00;101831.28;10372294;28;20109;-72
2022/02/22 00:10:18;;;;;;;38.78;8.55;;;;;;;5.51;100.00;101829.72;10373582;28;20042;-72
2022/02/22 00:15:18;;;;;;;34.15;8.63;;;;;;;5.46;100.00;101837.38;10376867;28;20034;-71
2022/02/22 00:20:18;;;;;;;35.53;8.45;;;;;;;5.34;100.00;101840.19;10380678;28;20048;-71
2022/02/22 00:25:19;;;;;;;35.47;7.00;;;;;;;5.30;100.00;101838.78;10380038;28;20034;-71
2022/02/22 00:30:19;;;;;;;21.35;8.15;;;;;;;5.24;100.00;101863.50;10379026;28;20132;-71
2022/02/22 00:35:20;;;;;;;32.40;9.88;;;;;;;5.18;100.00;101861.38;10379665;28;20061;-72
2022/02/22 00:40:20;;;;;;;23.58;6.53;;;;;;;5.18;100.00;101871.25;10380670;28;20101;-70
2022/02/22 00:45:20;;;;;;;43.78;9.60;;;;;;;5.17;100.00;101886.53;10377804;28;20066;-71
2022/02/22 00:50:21;;;;;;;37.45;7.28;;;;;;;5.09;100.00;101870.25;10378445;28;20100;-71
2022/02/22 00:55:22;;;;;;;21.63;6.93;;;;;;;5.05;100.00;101888.47;10380141;28;20049;-70
2022/02/22 01:00:22;;;;;;;29.77;8.55;;;;;;;4.99;100.00;101890.84;10378819;28;20491;-71
2022/02/22 01:05:23;;;;;;;22.65;7.70;;;;;;;4.92;100.00;101871.75;10377973;28;20066;-71
2022/02/22 01:10:23;;;;;;;23.90;7.43;;;;;;;4.95;100.00;101874.19;10378970;28;20030;-71
2022/02/22 01:15:24;;;;;;;37.53;9.73;;;;;;;4.90;100.00;101884.47;10378064;28;20029;-70
2022/02/22 01:20:24;;;;;;;47.20;9.75;;;;;;;4.77;100.00;101895.44;10377988;28;20183;-71
2022/02/22 01:25:28;;;;;;;26.17;7.82;;;;;;;4.78;100.00;101896.28;10359757;28;20473;-71
2022/02/22 01:30:28;;;;;;;42.88;8.93;;;;;;;4.74;100.00;101894.84;10379260;28;20034;-70
2022/02/22 01:35:29;;;;;;;39.97;8.43;;;;;;;4.83;100.00;101894.88;10377201;28;20061;-71
2022/02/22 01:40:30;;;;;;;28.77;6.63;;;;;;;4.82;100.00;101901.25;10360372;28;20050;-71
2022/02/22 01:45:30;;;;;;;28.65;7.90;;;;;;;4.78;100.00;101890.91;10378419;28;20053;-71
2022/02/22 01:50:31;;;;;;;34.20;8.60;;;;;;;4.80;100.00;101897.00;10375511;28;20489;-71
2022/02/22 01:55:34;;;;;;;41.88;7.22;;;;;;;4.82;100.00;101909.31;10378266;28;20036;-71
2022/02/22 02:00:35;;;;;;;45.45;9.13;;;;;;;4.80;100.00;101913.94;10376270;28;20037;-71
2022/02/22 02:05:35;;;;;;;36.30;8.88;;;;;;;4.82;100.00;101914.66;10375550;28;20481;-72
2022/02/22 02:10:36;;;;;;;22.90;8.75;;;;;;;4.89;100.00;101907.78;10377220;28;20036;-72
2022/02/22 02:15:36;;;;;;;25.63;8.77;;;;;;;5.01;100.00;101908.53;10375844;28;20053;-72
2022/02/22 02:20:37;;;;;;;19.50;6.22;;;;;;;4.95;100.00;101901.00;10376241;28;20381;-71
2022/02/22 02:25:37;;;;;;;18.33;5.50;;;;;;;4.91;100.00;101894.19;10375960;28;20091;-71
2022/02/22 02:30:37;;;;;;;43.42;7.93;;;;;;;4.99;100.00;101901.59;10375900;28;20042;-70
2022/02/22 02:35:38;;;;;;;24.60;7.35;;;;;;;4.89;100.00;101898.88;10374323;28;20069;-71
2022/02/22 02:40:38;;;;;;;29.77;7.20;;;;;;;4.93;100.00;101888.72;10376621;28;20038;-71
2022/02/22 02:45:38;;;;;;;29.25;9.13;;;;;;;4.92;100.00;101898.59;10376799;28;20046;-72
2022/02/22 02:50:39;;;;;;;27.92;9.02;;;;;;;4.88;100.00;101891.78;10376515;28;20069;-71
2022/02/22 02:55:39;;;;;;;19.00;6.53;;;;;;;4.88;100.00;101894.47;10374041;28;20069;-72
2022/02/22 03:00:40;;;;;;;32.80;7.55;;;;;;;4.81;100.00;101902.22;10375500;28;20446;-71
2022/02/22 03:05:40;;;;;;;37.72;6.78;;;;;;;4.80;100.00;101900.53;10374260;28;20026;-72
2022/02/22 03:10:40;;;;;;;18.88;6.45;;;;;;;4.76;100.00;101904.47;10376510;28;20488;-71
2022/02/22 03:15:41;;;;;;;36.03;7.32;;;;;;;4.75;100.00;101902.75;10375080;28;20033;-70
2022/02/22 03:20:42;;;;;;;23.48;6.97;;;;;;;4.70;100.00;101898.78;10373303;28;20038;-71
2022/02/22 03:25:42;;;;;;;16.27;5.47;;;;;;;4.65;100.00;101886.63;10376014;28;20030;-71
2022/02/22 03:30:43;;;;;;;22.92;6.38;;;;;;;4.61;100.00;101889.72;10372688;28;20033;-71
2022/02/22 03:35:43;;;;;;;11.77;5.97;;;;;;;4.56;100.00;101897.31;10373202;28;20034;-71
2022/02/22 03:40:44;;;;;;;38.38;7.22;;;;;;;4.53;100.00;101884.16;10374704;28;20500;-71
2022/02/22 03:45:44;;;;;;;16.85;6.22;;;;;;;4.55;100.00;101895.63;10373888;28;20046;-71
2022/02/22 03:50:44;;;;;;;41.72;6.95;;;;;;;4.53;100.00;101900.25;10379583;28;20038;-71
2022/02/22 03:55:45;;;;;;;18.77;6.43;;;;;;;4.49;100.00;101897.00;10381224;28;20049;-71
2022/02/22 04:00:45;;;;;;;29.25;4.32;;;;;;;4.45;100.00;101894.72;10381555;28;20113;-71
2022/02/22 04:05:46;;;;;;;19.00;6.22;;;;;;;4.41;100.00;101899.50;10381163;28;20026;-70
2022/02/22 04:10:46;;;;;;;38.55;8.10;;;;;;;4.34;100.00;101890.28;10382238;28;20038;-70
2022/02/22 04:15:47;;;;;;;26.30;7.03;;;;;;;4.31;100.00;101894.09;10381523;28;20033;-71
2022/02/22 04:20:47;;;;;;;21.27;5.78;;;;;;;4.33;100.00;101899.31;10380831;28;20458;-70
2022/02/22 04:25:48;;;;;;;21.67;5.70;;;;;;;4.35;100.00;101900.88;10379845;28;20116;-71
2022/02/22 04:30:48;;;;;;;40.05;6.47;;;;;;;4.37;100.00;101895.38;10378744;28;20034;-72
2022/02/22 04:35:48;;;;;;;31.63;7.95;;;;;;;4.40;100.00;101887.06;10378955;28;20069;-71
2022/02/22 04:40:49;;;;;;;14.77;7.45;;;;;;;4.42;100.00;101896.66;10378768;28;20531;-70
2022/02/22 04:45:49;;;;;;;9.68;5.25;;;;;;;4.64;100.00;101889.44;10378862;28;20405;-70
2022/02/22 04:50:50;;;;;;;23.70;6.00;;;;;;;4.84;100.00;101901.94;10378999;28;20045;-71
2022/02/22 04:55:50;;;;;;;21.27;6.05;;;;;;;5.08;100.00;101908.81;10379307;28;20042;-70
2022/02/22 05:00:51;;;;;;;14.48;6.47;;;;;;;5.23;100.00;101904.78;10379524;28;20362;-70
2022/02/22 05:05:54;;;;;;;14.93;5.38;;;;;;;5.25;100.00;101891.19;10379052;28;20063;-71
2022/02/22 05:10:54;;;;;;;23.92;5.80;;;;;;;5.15;100.00;101884.97;10378618;28;20103;-71
2022/02/22 05:15:55;;;;;;;25.85;6.47;;;;;;;5.06;100.00;101883.94;10377441;28;20121;-71
2022/02/22 05:20:55;;;;;;;16.65;4.57;;;;;;;5.01;100.00;101875.44;10360866;28;20046;-71
2022/02/22 05:25:56;;;;;;;32.30;6.43;;;;;;;4.98;100.00;101878.41;10377939;28;20414;-70
2022/02/22 05:30:56;;;;;;;22.75;7.75;;;;;;;4.98;100.00;101862.28;10377898;28;20042;-71
2022/02/22 05:35:56;;;;;;;34.88;7.78;;;;;;;4.99;100.00;101864.84;10376388;28;20064;-71
2022/02/22 05:40:57;;;;;;;14.23;6.93;;;;;;;4.99;100.00;101870.22;10378340;28;20060;-72
2022/02/22 05:45:57;;;;;;;30.25;8.10;;;;;;;4.97;100.00;101858.75;10375378;28;20061;-71
2022/02/22 05:50:58;;;;;;;20.02;7.28;;;;;;;4.85;100.00;101863.41;10375784;28;20068;-70
2022/02/22 05:55:58;;;;;;;26.45;8.55;;;;;;;4.84;100.00;101859.00;10376111;28;20034;-71
2022/02/22 06:00:58;;;;;;;21.05;8.63;;;;;;;4.82;100.00;101844.91;10376518;28;20065;-70
2022/02/22 06:05:59;;;;;;;41.58;8.40;;;;;;;4.81;100.00;101842.34;10375992;28;20069;-71
2022/02/22 06:10:59;;;;;;;23.75;8.38;;;;;;;4.87;100.00;101852.53;10375227;28;20053;-74
2022/02/22 06:16:00;;;;;;;33.40;7.63;;;;;;;4.85;100.00;101833.88;10376816;28;20065;-75
2022/02/22 06:21:00;;;;;;;29.35;8.70;;;;;;;4.94;100.00;101839.41;10375105;28;20382;-71
2022/02/22 06:26:00;;;;;;;30.30;8.82;;;;;;;5.11;100.00;101819.94;10374269;28;20042;-71
2022/02/22 06:31:01;;;;;;;27.83;7.63;;;;;;;5.17;100.00;101822.09;10375310;28;20042;-71
2022/02/22 06:36:01;;;;;;;29.70;8.57;;;;;;;5.34;100.00;101818.69;10374746;28;20042;-71
2022/02/22 06:41:02;;;;;;;25.58;6.07;;;;;;;5.44;100.00;101829.44;10374586;28;20042;-72
2022/02/22 06:46:03;;;;;;;27.95;7.15;;;;;;;5.53;100.00;101822.38;10358017;28;20108;-73
2022/02/22 06:51:03;;;;;;;31.52;7.85;;;;;;;5.52;100.00;101804.53;10373810;28;20030;-71
2022/02/22 06:56:04;;;;;;;23.75;5.60;;;;;;;5.51;100.00;101813.59;10374519;28;20038;-71
2022/02/22 07:01:04;;;;;;;31.05;5.80;;;;;;;5.55;100.00;101812.31;10375042;28;20034;-73
2022/02/22 07:06:04;;;;;;;35.35;7.80;;;;;;;5.58;100.00;101796.78;10372780;28;20049;-72
2022/02/22 07:11:05;;;;;;;27.17;7.22;;;;;;;5.56;100.00;101800.59;10375058;28;20092;-72
2022/02/22 07:16:05;;;;;;;28.27;7.18;;;;;;;5.57;100.00;101791.53;10374170;28;20045;-73
2022/02/22 07:21:06;;;;;;;33.50;8.45;;;;;;;5.65;100.00;101772.88;10374701;28;20076;-72
2022/02/22 07:26:06;;;;;;;32.50;8.93;;;;;;;5.63;100.00;101758.72;10380002;28;20462;-73
2022/02/22 07:31:07;;;;;;;17.73;4.85;;;;;;;5.80;100.00;101768.72;10382528;28;20422;-72
2022/02/22 07:36:07;;;;;;;12.50;5.40;;;;;;;5.91;100.00;101761.50;10381892;28;20030;-72
2022/02/22 07:41:08;;;;;;;13.90;5.63;;;;;;;5.90;100.00;101766.00;10382971;28;20057;-72
2022/02/22 07:46:08;;;;;;;20.17;6.50;;;;;;;6.04;100.00;101751.28;10381578;28;20046;-72
2022/02/22 07:51:09;;;;;;;26.45;7.20;;;;;;;6.15;100.00;101756.47;10381419;28;20145;-71
2022/02/22 07:56:10;;;;;;;30.20;7.78;;;;;;;6.23;100.00;101753.06;10363762;28;20045;-71
2022/02/22 08:01:11;;;;;;;35.03;8.23;;;;;;;6.27;100.00;101755.28;10380598;28;20057;-72
2022/02/22 08:06:12;;;;;;;18.17;5.68;;;;;;;6.29;100.00;101745.25;10380116;28;20065;-72
2022/02/22 08:11:12;;;;;;;39.15;9.25;;;;;;;6.47;100.00;101731.81;10379137;28;20038;-72
2022/02/22 08:16:13;;;;;;;36.30;8.40;;;;;;;6.62;100.00;101717.88;10380370;28;20030;-72
2022/02/22 08:21:13;;;;;;;19.83;8.25;;;;;;;6.80;100.00;101720.59;10378880;28;20045;-71
2022/02/22 08:26:14;;;;;;;27.13;9.15;;;;;;;6.70;100.00;101705.38;10379425;28;20067;-71
2022/02/22 08:31:14;;;;;;;31.70;7.63;;;;;;;6.67;100.00;101702.13;10379237;28;20069;-71
2022/02/22 08:36:15;;;;;;;16.02;5.45;;;;;;;6.79;100.00;101694.66;10378442;28;20397;-72
2022/02/22 08:41:15;;;;;;;19.40;6.97;;;;;;;7.26;100.00;101687.16;10379878;28;20041;-72
2022/02/22 08:46:16;;;;;;;19.48;7.18;;;;;;;8.10;100.00;101648.75;10379884;28;20415;-71
2022/02/22 08:51:16;;;;;;;33.47;6.82;;;;;;;8.18;100.00;101653.31;10378325;28;20126;-72
2022/02/22 08:56:17;;;;;;;37.00;8.68;;;;;;;8.37;100.00;101634.16;10377380;28;20109;-72
2022/02/22 09:01:17;;;;;;;28.13;6.40;;;;;;;7.86;100.00;101644.09;10377545;28;20113;-72
2022/02/22 09:06:18;;;;;;;20.35;7.10;;;;;;;7.55;100.00;101634.81;10379045;28;20073;-72
2022/02/22 09:11:18;;;;;;;22.60;6.43;;;;;;;7.30;100.00;101637.34;10377629;28;20053;-72
2022/02/22 09:16:18;;;;;;;30.65;9.60;;;;;;;7.25;100.00;101622.69;10379496;28;20433;-72
2022/02/22 09:21:19;;;;;;;20.92;6.80;;;;;;;7.59;100.00;101625.41;10378036;28;20488;-71
2022/02/22 09:26:19;;;;;;;16.65;6.28;;;;;;;8.10;100.00;101634.41;10376888;28;20086;-73
2022/02/22 09:31:20;;;;;;;21.25;6.10;;;;;;;7.71;100.00;101645.69;10376359;28;20042;-72
2022/02/22 09:36:20;;;;;;;20.10;5.25;;;;;;;7.46;100.00;101637.44;10377273;28;20049;-73
2022/02/22 09:41:21;;;;;;;34.33;8.32;;;;;;;7.34;100.00;101627.97;10377144;28;20042;-72
2022/02/22 09:46:21;;;;;;;32.17;8.32;;;;;;;7.42;100.00;101633.41;10378248;28;20150;-72
2022/02/22 09:51:22;;;;;;;24.13;7.40;;;;;;;7.43;100.00;101627.03;10376452;28;20596;-72
2022/02/22 09:56:24;;;;;;;20.80;8.55;;;;;;;7.43;100.00;101620.75;10376247;28;20045;-72
2022/02/22 10:01:25;;;;;;;18.85;7.65;;;;;;;7.38;100.00;101609.63;10375896;28;20029;-71
2022/02/22 10:06:26;;;;;;;20.92;7.18;;;;;;;7.22;100.00;101605.81;10375314;28;20129;-70
2022/02/22 10:11:26;;;;;;;33.95;9.50;;;;;;;7.20;100.00;101586.28;10374966;28;20072;-71
2022/02/22 10:16:26;;;;;;;27.73;9.43;;;;;;;7.16;100.00;101578.69;10377260;28;20361;-72
2022/02/22 10:21:27;;;;;;;21.98;8.18;;;;;;;7.10;100.00;101557.75;10375772;28;20334;-73
2022/02/22 10:26:27;;;;;;;30.15;9.40;;;;;;;7.13;100.00;101542.13;10374110;28;20045;-72
2022/02/22 10:31:38;;;;;;;26.02;8.48;;;;;;;7.18;100.00;101542.50;10373959;28;20053;-72
2022/02/22 10:36:40;;;;;;;27.92;7.20;;;;;;;7.32;100.00;101556.38;10375174;28;20385;-73
2022/02/22 10:41:41;;;;;;;22.92;8.13;;;;;;;7.37;100.00;101563.00;10374795;28;20100;-72
2022/02/22 10:46:45;;;;;;;24.33;9.30;;;;;;;7.49;100.00;101555.44;10375696;28;20041;-72
2022/02/22 10:51:49;;;;;;;42.30;11.65;;;;;;;7.60;100.00;101530.91;10374503;28;20057;-72
2022/02/22 10:56:50;;;;;;;21.17;7.80;;;;;;;7.73;100.00;101552.03;10375479;28;20049;-73
2022/02/22 11:01:51;;;;;;;26.25;9.48;;;;;;;7.78;100.00;101529.94;10373031;28;20032;-72
2022/02/22 11:06:51;;;;;;;18.95;8.45;;;;;;;7.85;100.00;101547.19;10374222;28;20093;-72
2022/02/22 11:12:12;;;;;;;22.08;11.05;;;;;;;7.92;100.00;101553.59;10374241;28;20030;-73
2022/02/22 11:17:18;;;;;;;27.60;10.32;;;;;;;8.12;100.00;101528.00;10373667;28;20039;-73
2022/02/22 11:22:23;;;;;;;17.60;7.75;;;;;;;8.29;100.00;101506.44;10373403;28;20049;-72
2022/02/22 11:27:30;;;;;;;18.05;7.50;;;;;;;8.39;100.00;101493.66;10375338;28;20050;-72
2022/02/22 11:32:30;;;;;;;;;;;;;;;8.54;100.00;101500.06;10374571;28;20062;-72
2022/02/22 11:37:30;;;;;;;33.17;8.57;;;;;;;8.75;100.00;101498.72;10373341;28;19945;-73
2022/02/22 11:42:31;;;;;;;20.42;8.32;;;;;;;8.83;100.00;101493.28;10372251;28;20469;-72
2022/02/22 11:47:32;;;;;;;16.83;9.10;;;;;;;8.96;100.00;101479.25;10373070;28;20092;-74
2022/02/22 11:52:37;;;;;;;13.80;6.90;;;;;;;9.02;100.00;101478.56;10373220;28;20062;-71
2022/02/22 11:57:51;;;;;;;14.60;7.43;;;;;;;9.04;100.00;101465.75;10371985;28;20049;-72
2022/02/22 12:02:52;;;;;;;14.13;7.88;;;;;;;9.10;100.00;101450.69;10372910;28;20113;-73
2022/02/22 12:08:03;;;;;;;17.02;7.80;;;;;;;9.15;100.00;101448.28;10374867;28;20049;-73
2022/02/22 12:13:08;;;;;;;16.52;6.55;;;;;;;9.27;100.00;101428.81;10380875;28;20045;-72
2022/02/22 12:18:35;;;;;;;12.73;6.40;;;;;;;9.29;100.00;101409.75;10380445;28;20026;-73
2022/02/22 12:23:37;;;;;;;14.93;7.22;;;;;;;9.30;100.00;101404.16;10392534;28;20401;-72
2022/02/22 12:28:55;;;;;;;16.60;7.40;;;;;;;9.39;100.00;101394.16;10379716;28;20046;-72
2022/02/22 12:33:59;;;;;;;23.05;7.35;;;;;;;9.42;100.00;101409.16;10379816;28;20041;-72
2022/02/22 12:39:12;;;;;;;12.75;5.93;;;;;;;9.47;100.00;101391.38;10378950;28;20048;-72
2022/02/22 12:44:17;;;;;;;14.23;6.07;;;;;;;9.47;100.00;101401.34;10362963;28;20077;-72
2022/02/22 12:49:18;;;;;;;10.20;5.63;;;;;;;9.58;100.00;101373.91;10378188;28;20040;-73
2022/02/22 12:54:19;;;;;;;14.73;5.78;;;;;;;9.66;100.00;101364.91;10378161;28;20033;-72
2022/02/22 12:59:38;;;;;;;20.13;6.07;;;;;;;9.73;100.00;101358.59;10379594;28;20041;-73
2022/02/22 13:04:39;;;;;;;11.90;5.97;;;;;;;9.80;100.00;101355.19;10380044;28;20045;-73
2022/02/22 13:09:40;;;;;;;14.65;5.07;;;;;;;9.85;100.00;101340.06;10377329;28;20041;-72
2022/02/22 13:14:45;;;;;;;20.10;6.50;;;;;;;10.01;100.00;101337.22;10378357;28;20489;-73
2022/02/22 13:19:47;;;;;;;20.67;6.90;;;;;;;10.21;100.00;101334.84;10378453;28;20061;-74
2022/02/22 13:25:07;;;;;;;20.92;6.38;;;;;;;10.23;100.00;101340.91;10378003;28;20096;-73
2022/02/22 13:30:12;;;;;;;30.48;7.93;;;;;;;10.21;100.00;101313.19;10378440;28;20041;-73
2022/02/22 13:35:17;;;;;;;17.77;6.97;;;;;;;10.20;100.00;101319.63;10375963;28;20547;-73
2022/02/22 13:40:19;;;;;;;37.33;9.60;;;;;;;10.22;100.00;101316.75;10375525;28;20022;-73
2022/02/22 13:45:19;;;;;;;14.63;7.40;;;;;;;10.18;100.00;101304.59;10377051;28;20050;-73
2022/02/22 13:50:22;;;;;;;41.80;11.82;;;;;;;10.10;100.00;101310.94;10376752;28;20460;-73
2022/02/22 13:55:23;;;;;;;40.95;8.18;;;;;;;10.10;100.00;101310.94;10376426;28;20061;-73
2022/02/22 14:00:26;;;;;;;27.15;9.50;;;;;;;10.02;100.00;101284.81;10376807;28;20473;-72
2022/02/22 14:05:26;;;;;;;44.83;12.02;;;;;;;10.02;100.00;101295.63;10378372;28;20029;-73
2022/02/22 14:10:29;;;;;;;56.40;10.93;;;;;;;10.09;100.00;101286.78;10377212;28;20026;-72
2022/02/22 14:15:29;;;;;;;47.17;11.13;;;;;;;10.09;100.00;101281.34;10376263;28;20338;-73
2022/02/22 14:20:31;;;;;;;41.25;12.25;;;;;;;10.10;100.00;101288.44;10374970;28;20037;-72
2022/02/22 14:25:32;;;;;;;32.13;11.27;;;;;;;10.02;100.00;101275.84;10375404;28;20074;-73
2022/02/22 14:30:33;;;;;;;32.88;11.43;;;;;;;9.93;100.00;101263.44;10374255;28;20418;-72
2022/02/22 14:35:34;;;;;;;38.20;12.10;;;;;;;9.92;100.00;101259.88;10375506;28;20103;-73
2022/02/22 14:40:34;;;;;;;40.33;11.05;;;;;;;9.78;100.00;101260.69;10374824;28;20034;-72
2022/02/22 14:45:35;;;;;;;45.60;11.82;;;;;;;9.65;100.00;101274.81;10375402;28;20413;-71
2022/02/22 14:50:35;;;;;;;53.50;15.20;;;;;;;9.41;100.00;101259.66;10375038;28;20413;-74
2022/02/22 14:55:37;;;;;;;37.45;11.55;;;;;;;9.39;100.00;101258.16;10375350;28;20046;-76
2022/02/22 15:00:37;;;;;;;49.65;12.23;;;;;;;9.31;100.00;101269.84;10375677;28;20041;-73
2022/02/22 15:05:38;;;;;;;35.22;9.65;;;;;;;9.30;100.00;101254.66;10374537;28;20438;-74
2022/02/22 15:10:41;;;;;;;66.85;13.93;;;;;;;9.34;100.00;101247.88;10373734;28;20030;-74
2022/02/22 15:15:42;;;;;;;53.95;13.27;;;;;;;9.36;100.00;101245.00;10373987;28;20454;-74
2022/02/22 15:20:46;;;;;;;51.08;15.38;;;;;;;9.35;100.00;101256.81;10373911;28;20038;-74
2022/02/22 15:25:47;;;;;;;54.50;15.90;;;;;;;9.28;100.00;101251.28;10373221;28;20042;-74
2022/02/22 15:30:48;;;;;;;47.90;14.00;;;;;;;9.28;100.00;101259.41;10374170;28;20030;-74
2022/02/22 15:35:48;;;;;;;48.42;15.45;;;;;;;9.36;100.00;101264.75;10373391;28;20046;-74
2022/02/22 15:40:49;;;;;;;52.53;13.57;;;;;;;9.39;100.00;101267.09;10372519;28;20084;-73
2022/02/22 15:45:50;;;;;;;38.40;11.38;;;;;;;9.32;100.00;101258.03;10377038;28;20060;-73
2022/02/22 15:50:51;;;;;;;55.50;13.65;;;;;;;9.41;100.00;101251.56;10382412;28;20050;-73
2022/02/22 15:55:52;;;;;;;51.47;14.27;;;;;;;9.37;100.00;101271.00;10380509;28;20420;-74
2022/02/22 16:00:52;;;;;;;50.10;11.23;;;;;;;9.34;100.00;101282.16;10380151;28;20122;-73
2022/02/22 16:05:52;;;;;;;39.90;14.90;;;;;;;9.30;100.00;101297.91;10382865;28;20033;-72
2022/02/22 16:10:53;;;;;;;66.72;14.07;;;;;;;9.25;100.00;101297.59;10382665;28;20041;-73
2022/02/22 16:15:54;;;;;;;73.28;14.52;;;;;;;9.21;100.00;101309.78;10379542;28;20117;-74
2022/02/22 16:20:56;;;;;;;45.40;12.90;;;;;;;9.18;100.00;101312.84;10380033;28;20045;-74
2022/02/22 16:25:56;;;;;;;46.85;14.40;;;;;;;9.19;100.00;101325.31;10394992;28;20040;-74
2022/02/22 16:30:57;;;;;;;42.80;11.13;;;;;;;9.25;100.00;101338.13;10381375;28;20030;-75
2022/02/22 16:35:58;;;;;;;36.72;10.75;;;;;;;9.27;100.00;101372.06;10379634;28;20034;-74
2022/02/22 16:40:58;;;;;;;31.52;11.75;;;;;;;9.30;100.00;101379.00;10381102;28;20034;-75
2022/02/22 16:46:02;;;;;;;65.88;14.40;;;;;;;9.33;100.00;101411.06;10385207;28;20064;-74
2022/02/22 16:51:03;;;;;;;58.28;14.15;;;;;;;9.27;100.00;101438.78;10381993;28;20429;-75
2022/02/22 16:56:04;;;;;;;34.65;9.70;;;;;;;9.11;100.00;101457.78;10378242;28;20042;-75
2022/02/22 17:01:04;;;;;;;33.55;7.97;;;;;;;9.01;100.00;101480.44;10378237;28;20038;-74
2022/02/22 17:06:05;;;;;;;36.35;8.13;;;;;;;9.00;100.00;101502.22;10378107;28;20045;-75
2022/02/22 17:11:05;;;;;;;25.40;8.85;;;;;;;8.86;100.00;101506.47;10377465;28;20104;-75
2022/02/22 17:16:06;;;;;;;19.05;7.10;;;;;;;8.72;100.00;101517.97;10378177;28;20042;-74
2022/02/22 17:21:06;;;;;;;21.95;7.63;;;;;;;8.65;100.00;101530.44;10379359;28;20060;-75
2022/02/22 17:26:06;;;;;;;30.38;8.23;;;;;;;8.55;100.00;101527.91;10378224;28;20034;-74
2022/02/22 17:31:12;;;;;;;16.83;5.60;;;;;;;8.40;100.00;101553.91;10377873;28;20033;-74
2022/02/22 17:36:12;;;;;;;26.80;6.35;;;;;;;8.27;100.00;101575.94;10379000;28;20088;-75
2022/02/22 17:41:14;;;;;;;24.33;5.18;;;;;;;8.13;100.00;101564.75;10376834;28;20481;-74
2022/02/22 17:46:14;;;;;;;7.80;4.07;;;;;;;8.02;100.00;101586.66;10378360;28;20092;-74
2022/02/22 17:51:15;;;;;;;14.23;4.72;;;;;;;7.99;100.00;101602.34;10378124;28;20061;-75
2022/02/22 17:56:15;;;;;;;10.82;3.55;;;;;;;7.91;100.00;101627.41;10376573;28;20034;-75
2022/02/22 18:01:21;;;;;;;13.32;3.08;;;;;;;7.76;100.00;101637.97;10376880;28;20473;-75
2022/02/22 18:06:21;;;;;;;26.25;4.22;;;;;;;7.56;100.00;101644.59;10377322;28;20045;-76
2022/02/22 18:11:23;;;;;;;11.32;3.40;;;;;;;7.46;100.00;101647.38;10376595;28;20038;-75
2022/02/22 18:16:23;;;;;;;9.15;3.50;;;;;;;7.27;100.00;101647.59;10375298;28;20044;-76
2022/02/22 18:21:24;;;;;;;18.85;3.50;;;;;;;7.17;100.00;101655.78;10376630;28;20044;-76
2022/02/22 18:26:27;;;;;;;12.30;5.10;;;;;;;7.09;100.00;101658.44;10374928;28;20034;-75
2022/02/22 18:31:28;;;;;;;17.88;5.68;;;;;;;7.01;100.00;101664.56;10375867;28;20076;-76
2022/02/22 18:36:28;;;;;;;16.75;5.75;;;;;;;7.00;100.00;101679.06;10377593;28;20080;-75
2022/02/22 18:41:29;;;;;;;23.52;4.80;;;;;;;6.89;100.00;101682.84;10375645;28;20034;-75
2022/02/22 18:46:29;;;;;;;17.95;4.68;;;;;;;6.87;100.00;101686.69;10374889;28;20050;-76
2022/02/22 18:51:30;;;;;;;9.60;3.42;;;;;;;6.88;100.00;101709.91;10375764;28;20470;-75
2022/02/22 18:56:30;;;;;;;15.10;4.45;;;;;;;6.93;100.00;101705.75;10374956;28;20034;-76
2022/02/22 19:01:30;;;;;;;8.60;3.92;;;;;;;6.96;100.00;101726.16;10375033;28;20042;-75
2022/02/22 19:06:31;;;;;;;8.82;3.28;;;;;;;6.96;100.00;101726.16;10374211;28;20037;-77
2022/02/22 19:11:31;;;;;;;5.93;3.63;;;;;;;6.99;100.00;101736.59;10375396;28;20034;-76
2022/02/22 19:16:33;;;;;;;12.73;2.92;;;;;;;7.00;100.00;101743.69;10373304;28;20457;-76
2022/02/22 19:21:34;;;;;;;26.52;5.03;;;;;;;7.05;100.00;101752.16;10373909;28;20492;-76
2022/02/22 19:26:35;;;;;;;27.30;5.03;;;;;;;7.05;100.00;101773.69;10374952;28;20379;-77
2022/02/22 19:31:35;;;;;;;8.07;3.67;;;;;;;7.04;100.00;101790.84;10375054;28;20050;-77
2022/02/22 19:36:36;;;;;;;15.45;3.00;;;;;;;7.06;100.00;101813.09;10374786;28;20106;-76
2022/02/22 19:41:36;;;;;;;18.05;4.93;;;;;;;7.00;100.00;101821.78;10374328;28;20072;-76
2022/02/22 19:46:36;;;;;;;13.85;4.65;;;;;;;7.01;100.00;101830.69;10375020;28;20050;-78
2022/02/22 19:51:37;;;;;;;19.30;5.40;;;;;;;6.89;100.00;101839.00;10373949;28;20538;-77
2022/02/22 19:56:37;;;;;;;10.13;3.83;;;;;;;6.81;100.00;101846.97;10374374;28;20033;-77
2022/02/22 20:01:38;;;;;;;21.25;4.72;;;;;;;6.78;100.00;101859.88;10373371;28;20042;-77
2022/02/22 20:06:38;;;;;;;14.07;5.28;;;;;;;6.73;100.00;101861.19;10373595;28;20037;-77
2022/02/22 20:11:40;;;;;;;14.40;5.88;;;;;;;6.71;100.00;101871.25;10372356;28;20080;-77
2022/02/22 20:16:40;;;;;;;12.27;4.30;;;;;;;6.68;100.00;101878.75;10374189;28;20041;-75
2022/02/22 20:21:40;;;;;;;11.35;3.15;;;;;;;6.65;100.00;101884.44;10372363;28;20037;-76
2022/02/22 20:26:41;;;;;;;12.70;5.22;;;;;;;6.55;100.00;101884.47;10373271;28;20401;-77
2022/02/22 20:31:41;;;;;;;19.05;4.65;;;;;;;6.57;100.00;101901.31;10377538;28;20062;-75
2022/02/22 20:36:42;;;;;;;10.82;3.55;;;;;;;6.66;100.00;101913.88;10381557;28;20030;-75
2022/02/22 20:41:42;;;;;;;25.60;4.68;;;;;;;6.73;100.00;101930.28;10380154;28;20038;-73
2022/02/22 20:46:43;;;;;;;14.70;3.60;;;;;;;6.73;100.00;101936.56;10380614;28;20496;-76
2022/02/22 20:51:43;;;;;;;26.40;5.15;;;;;;;6.72;100.00;101944.75;10378109;28;20046;-76
2022/02/22 20:56:44;;;;;;;7.15;3.55;;;;;;;6.71;100.00;101957.38;10380260;28;20045;-76
2022/02/22 21:01:44;;;;;;;12.48;3.65;;;;;;;6.73;100.00;101962.59;10378473;28;20041;-78
2022/02/22 21:06:44;;;;;;;9.18;3.08;;;;;;;6.70;100.00;101969.16;10379610;28;20037;-78
2022/02/22 21:11:45;;;;;;;18.52;6.22;;;;;;;6.65;100.00;101982.19;10377900;28;20033;-80
2022/02/22 21:16:45;;;;;;;5.63;3.22;;;;;;;6.60;100.00;101979.06;10377457;28;20065;-76
2022/02/22 21:21:46;;;;;;;10.00;4.93;;;;;;;6.68;100.00;101997.19;10379073;28;20436;-77
2022/02/22 21:26:46;;;;;;;13.05;4.95;;;;;;;6.65;100.00;102009.09;10377972;28;20037;-77
2022/02/22 21:31:47;;;;;;;16.45;6.57;;;;;;;6.61;100.00;102010.38;10376596;28;20041;-76
2022/02/22 21:36:48;;;;;;;10.93;4.90;;;;;;;6.54;100.00;102017.34;10377017;28;20061;-77
2022/02/22 21:41:49;;;;;;;12.27;3.80;;;;;;;6.55;100.00;102028.94;10377294;28;20136;-76
2022/02/22 21:46:49;;;;;;;13.13;5.03;;;;;;;6.47;100.00;102043.09;10378348;28;20124;-76
2022/02/22 21:51:49;;;;;;;20.45;5.55;;;;;;;6.49;100.00;102051.91;10378280;28;20045;-76
2022/02/22 21:56:52;;;;;;;18.90;5.18;;;;;;;6.51;100.00;102055.31;10377973;28;20112;-75
2022/02/22 22:01:52;;;;;;;18.23;5.82;;;;;;;6.48;100.00;102056.44;10376680;28;20574;-76
2022/02/22 22:06:53;;;;;;;15.63;5.30;;;;;;;6.43;100.00;102061.38;10377066;28;20123;-75
2022/02/22 22:11:53;;;;;;;21.15;4.90;;;;;;;6.47;100.00;102083.47;10376292;28;20116;-76
2022/02/22 22:16:53;;;;;;;12.38;4.82;;;;;;;6.40;100.00;102085.88;10376099;28;20037;-75
2022/02/22 22:21:54;;;;;;;11.07;5.50;;;;;;;6.44;100.00;102091.81;10376962;28;20116;-75
2022/02/22 22:26:54;;;;;;;19.98;6.50;;;;;;;6.39;100.00;102107.56;10376232;28;20038;-75
2022/02/22 22:31:55;;;;;;;17.75;5.60;;;;;;;6.36;100.00;102113.22;10376376;28;20038;-75
2022/02/22 22:36:55;;;;;;;13.50;5.95;;;;;;;6.36;100.00;102123.97;10376193;28;20049;-75
2022/02/22 22:41:55;;;;;;;25.95;4.15;;;;;;;6.29;100.00;102127.22;10374268;28;20048;-74
2022/02/22 22:46:56;;;;;;;14.63;5.32;;;;;;;6.27;100.00;102139.94;10375178;28;20501;-75